createdAt,value
2023-02-07T00:00:46.014Z,1033.04
2023-02-07T00:01:46.028Z,1033.02
2023-02-07T00:02:45.927Z,1032.98
2023-02-07T00:03:45.872Z,1032.76
2023-02-07T00:04:45.828Z,1033.18
2023-02-07T00:05:45.772Z,1032.85
2023-02-07T00:06:45.734Z,1032.89
2023-02-07T00:07:45.689Z,1033.15
2023-02-07T00:08:45.645Z,1032.86
2023-02-07T00:09:45.602Z,1032.82
2023-02-07T00:10:45.541Z,1032.76
2023-02-07T00:11:45.504Z,1032.75
2023-02-07T00:12:45.457Z,1033.14
2023-02-07T00:13:45.395Z,1033.22
2023-02-07T00:14:45.374Z,1032.85
2023-02-07T00:15:45.316Z,1032.98
2023-02-07T00:16:45.280Z,1032.93
2023-02-07T00:17:45.204Z,1033.25
2023-02-07T00:18:45.164Z,1032.88
2023-02-07T00:19:45.108Z,1032.88
2023-02-07T00:20:45.079Z,1032.89
2023-02-07T00:21:45.022Z,1032.84
2023-02-07T00:22:44.970Z,1032.83
2023-02-07T00:23:44.916Z,1032.98
2023-02-07T00:24:44.875Z,1033.20
2023-02-07T00:25:44.822Z,1032.89
2023-02-07T00:26:44.791Z,1032.90
2023-02-07T00:27:44.897Z,1032.89
2023-02-07T00:28:44.721Z,1032.83
2023-02-07T00:29:44.633Z,1032.82
2023-02-07T00:30:44.683Z,1032.83
2023-02-07T00:31:44.591Z,1033.11
2023-02-07T00:32:44.506Z,1032.84
2023-02-07T00:33:44.470Z,1032.84
2023-02-07T00:34:44.398Z,1032.87
2023-02-07T00:35:44.350Z,1032.83
2023-02-07T00:36:44.302Z,1032.81
2023-02-07T00:37:44.259Z,1032.84
2023-02-07T00:38:44.224Z,1032.75
2023-02-07T00:39:44.171Z,1033.08
2023-02-07T00:40:44.124Z,1032.72
2023-02-07T00:41:44.073Z,1032.72
2023-02-07T00:42:44.025Z,1032.72
2023-02-07T00:43:43.970Z,1032.73
2023-02-07T00:44:43.929Z,1032.73
2023-02-07T00:45:43.909Z,1032.66
2023-02-07T00:46:43.842Z,1032.67
2023-02-07T00:47:43.778Z,1032.67
2023-02-07T00:48:43.737Z,1032.65
2023-02-07T00:49:43.685Z,1032.68
2023-02-07T00:50:43.644Z,1032.70
2023-02-07T00:51:43.600Z,1032.97
2023-02-07T00:52:43.543Z,1032.99
2023-02-07T00:53:43.497Z,1032.65
2023-02-07T00:54:43.449Z,1032.87
2023-02-07T00:55:43.400Z,1032.99
2023-02-07T00:56:43.352Z,1033.00
2023-02-07T00:57:43.316Z,1032.69
2023-02-07T00:58:43.259Z,1032.65
2023-02-07T00:59:43.208Z,1032.69
2023-02-07T01:00:43.181Z,1032.99
2023-02-07T01:01:43.121Z,1033.04
2023-02-07T01:02:43.069Z,1032.75
2023-02-07T01:03:43.029Z,1033.06
2023-02-07T01:04:43.010Z,1032.65
2023-02-07T01:05:42.926Z,1032.61
2023-02-07T01:06:42.888Z,1032.59
2023-02-07T01:07:42.835Z,1032.62
2023-02-07T01:08:42.801Z,1032.64
2023-02-07T01:09:42.733Z,1032.62
2023-02-07T01:10:42.700Z,1032.64
2023-02-07T01:11:42.644Z,1032.66
2023-02-07T01:12:42.598Z,1032.77
2023-02-07T01:13:42.546Z,1032.64
2023-02-07T01:14:42.510Z,1032.63
2023-02-07T01:15:42.472Z,1032.70
2023-02-07T01:16:42.402Z,1032.74
2023-02-07T01:17:42.357Z,1032.72
2023-02-07T01:18:42.310Z,1032.90
2023-02-07T01:19:42.273Z,1032.82
2023-02-07T01:20:42.246Z,1032.85
2023-02-07T01:21:42.167Z,1032.82
2023-02-07T01:22:42.121Z,1032.88
2023-02-07T01:23:42.082Z,1032.81
2023-02-07T01:24:42.027Z,1032.81
2023-02-07T01:25:41.977Z,1032.83
2023-02-07T01:26:41.939Z,1032.84
2023-02-07T01:27:41.889Z,1032.86
2023-02-07T01:28:41.842Z,1032.88
2023-02-07T01:29:41.796Z,1032.88
2023-02-07T01:30:41.793Z,1032.86
2023-02-07T01:31:41.785Z,1032.99
2023-02-07T01:32:41.647Z,1032.83
2023-02-07T01:33:41.594Z,1032.80
2023-02-07T01:34:41.555Z,1032.84
2023-02-07T01:35:41.508Z,1032.84
2023-02-07T01:36:41.470Z,1032.80
2023-02-07T01:37:41.401Z,1032.78
2023-02-07T01:38:41.356Z,1032.79
2023-02-07T01:39:41.307Z,1033.17
2023-02-07T01:40:41.255Z,1032.81
2023-02-07T01:41:41.218Z,1032.78
2023-02-07T01:42:41.166Z,1033.12
2023-02-07T01:43:41.112Z,1033.07
2023-02-07T01:44:41.067Z,1033.09
2023-02-07T01:45:41.283Z,1033.08
2023-02-07T01:46:40.972Z,1033.10
2023-02-07T01:47:40.932Z,1033.12
2023-02-07T01:48:40.874Z,1033.14
2023-02-07T01:49:40.823Z,1033.14
2023-02-07T01:50:40.786Z,1033.12
2023-02-07T01:51:40.729Z,1033.12
2023-02-07T01:52:40.683Z,1033.09
2023-02-07T01:53:40.658Z,1033.10
2023-02-07T01:54:40.593Z,1032.74
2023-02-07T01:55:40.779Z,1032.75
2023-02-07T01:56:40.497Z,1033.09
2023-02-07T01:57:40.445Z,1032.73
2023-02-07T01:58:40.398Z,1032.77
2023-02-07T01:59:40.359Z,1033.04
2023-02-07T02:00:40.306Z,1032.74
2023-02-07T02:01:40.285Z,1032.73
2023-02-07T02:02:40.243Z,1032.72
2023-02-07T02:03:40.158Z,1032.72
2023-02-07T02:04:40.116Z,1032.83
2023-02-07T02:05:40.168Z,1032.83
2023-02-07T02:06:40.018Z,1032.85
2023-02-07T02:07:39.961Z,1032.81
2023-02-07T02:08:39.919Z,1032.83
2023-02-07T02:09:39.870Z,1032.81
2023-02-07T02:10:39.822Z,1032.77
2023-02-07T02:11:39.787Z,1032.76
2023-02-07T02:12:39.730Z,1032.70
2023-02-07T02:13:39.683Z,1032.73
2023-02-07T02:14:39.635Z,1033.07
2023-02-07T02:15:39.929Z,1032.69
2023-02-07T02:16:39.539Z,1032.67
2023-02-07T02:17:39.488Z,1032.69
2023-02-07T02:18:39.446Z,1032.63
2023-02-07T02:19:39.398Z,1032.68
2023-02-07T02:20:39.363Z,1032.69
2023-02-07T02:21:39.341Z,1032.68
2023-02-07T02:22:39.252Z,1032.76
2023-02-07T02:23:39.201Z,1032.74
2023-02-07T02:24:39.162Z,1032.72
2023-02-07T02:25:39.339Z,1032.70
2023-02-07T02:26:39.060Z,1032.65
2023-02-07T02:27:39.019Z,1032.70
2023-02-07T02:28:38.971Z,1032.68
2023-02-07T02:29:38.917Z,1032.67
2023-02-07T02:30:38.899Z,1032.69
2023-02-07T02:31:38.887Z,1032.81
2023-02-07T02:32:38.788Z,1032.90
2023-02-07T02:33:38.724Z,1032.76
2023-02-07T02:34:38.687Z,1032.75
2023-02-07T02:35:38.980Z,1032.80
2023-02-07T02:36:38.592Z,1032.77
2023-02-07T02:37:38.534Z,1032.76
2023-02-07T02:38:38.496Z,1032.81
2023-02-07T02:39:38.439Z,1032.77
2023-02-07T02:40:38.390Z,1032.81
2023-02-07T02:41:38.360Z,1032.78
2023-02-07T02:42:38.294Z,1032.79
2023-02-07T02:43:38.265Z,1032.78
2023-02-07T02:44:38.201Z,1033.13
2023-02-07T02:45:38.534Z,1033.19
2023-02-07T02:46:38.113Z,1033.20
2023-02-07T02:47:38.064Z,1032.85
2023-02-07T02:48:38.044Z,1033.14
2023-02-07T02:49:37.959Z,1033.17
2023-02-07T02:50:37.914Z,1032.83
2023-02-07T02:51:37.867Z,1033.19
2023-02-07T02:52:50.192Z,1032.87
2023-02-07T02:53:37.794Z,1033.20
2023-02-07T02:54:37.735Z,1032.87
2023-02-07T02:55:38.017Z,1033.16
2023-02-07T02:56:37.625Z,1033.22
2023-02-07T02:57:37.591Z,1032.89
2023-02-07T02:58:37.532Z,1033.24
2023-02-07T02:59:37.501Z,1033.20
2023-02-07T03:00:37.438Z,1032.86
2023-02-07T03:01:37.404Z,1032.80
2023-02-07T03:02:37.340Z,1032.98
2023-02-07T03:03:37.293Z,1032.85
2023-02-07T03:04:37.249Z,1033.11
2023-02-07T03:05:37.525Z,1033.13
2023-02-07T03:06:37.149Z,1032.83
2023-02-07T03:07:37.105Z,1032.81
2023-02-07T03:08:38.768Z,1033.09
2023-02-07T03:09:37.012Z,1032.79
2023-02-07T03:10:36.957Z,1032.73
2023-02-07T03:11:36.926Z,1032.72
2023-02-07T03:12:36.862Z,1032.69
2023-02-07T03:13:36.819Z,1032.78
2023-02-07T03:14:36.766Z,1032.59
2023-02-07T03:15:37.086Z,1032.62
2023-02-07T03:16:36.689Z,1032.62
2023-02-07T03:17:36.627Z,1032.64
2023-02-07T03:18:36.575Z,1032.66
2023-02-07T03:19:36.529Z,1033.01
2023-02-07T03:20:36.477Z,1033.00
2023-02-07T03:21:36.433Z,1032.67
2023-02-07T03:22:36.391Z,1032.96
2023-02-07T03:23:36.335Z,1032.94
2023-02-07T03:24:36.287Z,1032.90
2023-02-07T03:25:36.636Z,1032.87
2023-02-07T03:26:36.190Z,1032.87
2023-02-07T03:27:36.140Z,1032.46
2023-02-07T03:28:36.103Z,1032.77
2023-02-07T03:29:36.044Z,1032.57
2023-02-07T03:30:35.999Z,1032.52
2023-02-07T03:31:35.988Z,1032.87
2023-02-07T03:32:35.898Z,1032.60
2023-02-07T03:33:35.855Z,1032.62
2023-02-07T03:34:35.812Z,1032.62
2023-02-07T03:35:35.985Z,1032.65
2023-02-07T03:36:35.706Z,1032.62
2023-02-07T03:37:35.659Z,1032.64
2023-02-07T03:38:35.621Z,1032.96
2023-02-07T03:39:35.576Z,1032.98
2023-02-07T03:40:35.513Z,1032.70
2023-02-07T03:41:35.485Z,1032.98
2023-02-07T03:42:35.432Z,1032.85
2023-02-07T03:43:35.374Z,1033.01
2023-02-07T03:44:35.335Z,1032.71
2023-02-07T03:45:35.336Z,1032.71
2023-02-07T03:46:35.238Z,1032.68
2023-02-07T03:47:35.180Z,1033.05
2023-02-07T03:48:35.130Z,1033.07
2023-02-07T03:49:35.084Z,1032.78
2023-02-07T03:50:35.047Z,1033.10
2023-02-07T03:51:34.986Z,1033.15
2023-02-07T03:52:34.943Z,1033.15
2023-02-07T03:53:34.898Z,1032.80
2023-02-07T03:54:34.843Z,1033.06
2023-02-07T03:55:34.806Z,1033.09
2023-02-07T03:56:34.747Z,1033.10
2023-02-07T03:57:34.702Z,1033.08
2023-02-07T03:58:34.651Z,1032.75
2023-02-07T03:59:34.606Z,1033.10
2023-02-07T04:00:34.555Z,1033.09
2023-02-07T04:01:34.524Z,1032.73
2023-02-07T04:02:34.462Z,1032.74
2023-02-07T04:03:34.420Z,1032.73
2023-02-07T04:04:34.364Z,1032.73
2023-02-07T04:05:34.322Z,1032.74
2023-02-07T04:06:34.268Z,1032.76
2023-02-07T04:07:34.232Z,1032.75
2023-02-07T04:08:34.172Z,1032.75
2023-02-07T04:09:34.128Z,1033.07
2023-02-07T04:10:34.080Z,1032.71
2023-02-07T04:11:34.031Z,1032.74
2023-02-07T04:12:34.004Z,1033.05
2023-02-07T04:13:33.945Z,1033.03
2023-02-07T04:14:33.890Z,1032.69
2023-02-07T04:15:33.849Z,1032.67
2023-02-07T04:16:33.867Z,1032.66
2023-02-07T04:17:33.747Z,1033.01
2023-02-07T04:18:33.697Z,1033.02
2023-02-07T04:19:33.660Z,1033.04
2023-02-07T04:20:33.600Z,1032.69
2023-02-07T04:21:33.549Z,1032.63
2023-02-07T04:22:33.504Z,1032.63
2023-02-07T04:23:33.459Z,1032.91
2023-02-07T04:24:33.415Z,1032.82
2023-02-07T04:25:33.359Z,1032.58
2023-02-07T04:26:33.309Z,1032.54
2023-02-07T04:27:33.272Z,1032.54
2023-02-07T04:28:33.214Z,1032.56
2023-02-07T04:29:33.165Z,1032.88
2023-02-07T04:30:33.147Z,1032.56
2023-02-07T04:31:33.115Z,1032.57
2023-02-07T04:32:33.020Z,1032.56
2023-02-07T04:33:32.984Z,1032.57
2023-02-07T04:34:32.924Z,1032.57
2023-02-07T04:35:32.881Z,1032.91
2023-02-07T04:36:32.846Z,1032.55
2023-02-07T04:37:32.780Z,1032.55
2023-02-07T04:38:32.727Z,1032.50
2023-02-07T04:39:32.683Z,1032.53
2023-02-07T04:40:32.637Z,1032.48
2023-02-07T04:41:32.595Z,1032.45
2023-02-07T04:42:32.544Z,1032.45
2023-02-07T04:43:32.490Z,1032.42
2023-02-07T04:44:32.438Z,1032.35
2023-02-07T04:45:32.408Z,1032.36
2023-02-07T04:46:32.356Z,1032.36
2023-02-07T04:47:32.296Z,1032.34
2023-02-07T04:48:32.246Z,1032.33
2023-02-07T04:49:34.230Z,1032.35
2023-02-07T04:50:32.151Z,1032.33
2023-02-07T04:51:32.114Z,1032.30
2023-02-07T04:52:32.062Z,1032.38
2023-02-07T04:53:32.049Z,1032.33
2023-02-07T04:54:31.979Z,1032.44
2023-02-07T04:55:31.913Z,1032.35
2023-02-07T04:56:31.864Z,1032.70
2023-02-07T04:57:31.832Z,1032.68
2023-02-07T04:58:31.773Z,1032.45
2023-02-07T04:59:31.720Z,1032.46
2023-02-07T05:00:31.697Z,1032.43
2023-02-07T05:01:31.633Z,1032.42
2023-02-07T05:02:31.601Z,1032.72
2023-02-07T05:03:31.549Z,1032.59
2023-02-07T05:04:31.489Z,1032.74
2023-02-07T05:05:31.444Z,1032.71
2023-02-07T05:06:31.387Z,1032.72
2023-02-07T05:07:31.340Z,1032.38
2023-02-07T05:08:31.306Z,1032.31
2023-02-07T05:09:31.248Z,1032.36
2023-02-07T05:10:31.197Z,1032.36
2023-02-07T05:11:31.157Z,1032.39
2023-02-07T05:12:31.106Z,1032.37
2023-02-07T05:13:31.060Z,1032.41
2023-02-07T05:14:31.016Z,1032.35
2023-02-07T05:15:30.958Z,1032.42
2023-02-07T05:16:30.936Z,1032.38
2023-02-07T05:17:30.863Z,1032.34
2023-02-07T05:18:30.831Z,1032.34
2023-02-07T05:19:30.766Z,1032.36
2023-02-07T05:20:30.743Z,1032.30
2023-02-07T05:21:30.675Z,1032.37
2023-02-07T05:22:30.624Z,1032.28
2023-02-07T05:23:30.578Z,1032.26
2023-02-07T05:24:30.529Z,1032.26
2023-02-07T05:25:30.487Z,1032.26
2023-02-07T05:26:30.442Z,1032.25
2023-02-07T05:27:30.384Z,1032.28
2023-02-07T05:28:30.337Z,1032.25
2023-02-07T05:29:30.293Z,1032.19
2023-02-07T05:30:30.360Z,1032.18
2023-02-07T05:31:30.263Z,1032.54
2023-02-07T05:32:30.162Z,1032.49
2023-02-07T05:33:30.668Z,1032.52
2023-02-07T05:34:30.049Z,1032.57
2023-02-07T05:35:30.004Z,1032.50
2023-02-07T05:36:29.951Z,1032.24
2023-02-07T05:37:29.908Z,1032.21
2023-02-07T05:38:29.872Z,1032.56
2023-02-07T05:39:29.810Z,1032.57
2023-02-07T05:40:29.758Z,1032.60
2023-02-07T05:41:29.715Z,1032.21
2023-02-07T05:42:29.670Z,1032.20
2023-02-07T05:43:29.619Z,1032.22
2023-02-07T05:44:29.583Z,1032.22
2023-02-07T05:45:29.523Z,1032.20
2023-02-07T05:46:29.474Z,1032.26
2023-02-07T05:47:29.429Z,1032.38
2023-02-07T05:48:29.382Z,1032.27
2023-02-07T05:49:29.336Z,1032.46
2023-02-07T05:50:29.295Z,1032.26
2023-02-07T05:51:29.255Z,1032.57
2023-02-07T05:52:29.185Z,1032.66
2023-02-07T05:53:29.140Z,1032.39
2023-02-07T05:54:29.095Z,1032.65
2023-02-07T05:55:29.045Z,1032.66
2023-02-07T05:56:28.997Z,1032.68
2023-02-07T05:57:28.962Z,1032.70
2023-02-07T05:58:28.904Z,1032.73
2023-02-07T05:59:28.856Z,1032.37
2023-02-07T06:00:28.801Z,1032.45
2023-02-07T06:01:28.760Z,1032.43
2023-02-07T06:02:28.729Z,1032.75
2023-02-07T06:03:28.693Z,1032.41
2023-02-07T06:04:28.611Z,1032.47
2023-02-07T06:05:28.571Z,1032.46
2023-02-07T06:06:28.521Z,1032.84
2023-02-07T06:07:28.470Z,1032.50
2023-02-07T06:08:28.418Z,1032.51
2023-02-07T06:09:28.390Z,1032.42
2023-02-07T06:10:28.323Z,1032.39
2023-02-07T06:11:28.280Z,1032.41
2023-02-07T06:12:28.228Z,1032.41
2023-02-07T06:13:28.181Z,1032.41
2023-02-07T06:14:28.137Z,1032.41
2023-02-07T06:15:28.111Z,1032.40
2023-02-07T06:16:28.036Z,1032.80
2023-02-07T06:17:27.999Z,1032.78
2023-02-07T06:18:27.942Z,1032.44
2023-02-07T06:19:27.896Z,1032.45
2023-02-07T06:20:27.855Z,1032.85
2023-02-07T06:21:37.644Z,1032.55
2023-02-07T06:22:27.756Z,1032.51
2023-02-07T06:23:27.715Z,1032.83
2023-02-07T06:24:27.659Z,1032.85
2023-02-07T06:25:27.611Z,1032.48
2023-02-07T06:26:27.625Z,1032.54
2023-02-07T06:27:27.544Z,1032.56
2023-02-07T06:28:27.459Z,1032.82
2023-02-07T06:29:27.424Z,1032.61
2023-02-07T06:30:27.376Z,1032.71
2023-02-07T06:31:27.352Z,1032.97
2023-02-07T06:32:27.278Z,1033.00
2023-02-07T06:33:27.246Z,1032.66
2023-02-07T06:34:27.186Z,1033.03
2023-02-07T06:35:27.135Z,1033.07
2023-02-07T06:36:27.099Z,1033.10
2023-02-07T06:37:27.039Z,1033.13
2023-02-07T06:38:26.989Z,1032.81
2023-02-07T06:39:26.960Z,1032.76
2023-02-07T06:40:26.895Z,1033.12
2023-02-07T06:41:26.852Z,1033.14
2023-02-07T06:42:26.804Z,1033.12
2023-02-07T06:43:26.753Z,1033.18
2023-02-07T06:44:26.705Z,1032.87
2023-02-07T06:45:26.672Z,1032.88
2023-02-07T06:46:26.708Z,1033.25
2023-02-07T06:47:26.569Z,1033.19
2023-02-07T06:48:26.532Z,1032.92
2023-02-07T06:49:26.469Z,1032.95
2023-02-07T06:50:26.420Z,1032.93
2023-02-07T06:51:26.381Z,1033.22
2023-02-07T06:52:26.327Z,1033.23
2023-02-07T06:53:26.276Z,1032.86
2023-02-07T06:54:26.235Z,1033.24
2023-02-07T06:55:26.175Z,1033.26
2023-02-07T06:56:26.261Z,1033.29
2023-02-07T06:57:26.091Z,1032.97
2023-02-07T06:58:26.035Z,1033.01
2023-02-07T06:59:25.985Z,1033.04
2023-02-07T07:00:25.960Z,1033.01
2023-02-07T07:01:25.919Z,1033.03
2023-02-07T07:02:25.866Z,1033.02
2023-02-07T07:03:25.805Z,1033.01
2023-02-07T07:04:25.752Z,1033.33
2023-02-07T07:05:25.713Z,1033.01
2023-02-07T07:06:25.662Z,1033.28
2023-02-07T07:07:25.613Z,1033.03
2023-02-07T07:08:25.561Z,1033.34
2023-02-07T07:09:25.523Z,1033.40
2023-02-07T07:10:25.517Z,1033.16
2023-02-07T07:11:25.417Z,1033.16
2023-02-07T07:12:25.376Z,1033.17
2023-02-07T07:13:25.319Z,1033.19
2023-02-07T07:14:25.277Z,1033.22
2023-02-07T07:15:25.242Z,1033.21
2023-02-07T07:16:25.239Z,1033.56
2023-02-07T07:17:25.133Z,1033.29
2023-02-07T07:18:25.101Z,1033.50
2023-02-07T07:19:25.038Z,1033.54
2023-02-07T07:20:25.002Z,1033.48
2023-02-07T07:21:24.939Z,1033.62
2023-02-07T07:22:24.901Z,1033.36
2023-02-07T07:23:24.846Z,1033.28
2023-02-07T07:24:24.795Z,1033.30
2023-02-07T07:25:24.748Z,1033.26
2023-02-07T07:26:24.713Z,1033.30
2023-02-07T07:27:24.655Z,1033.30
2023-02-07T07:28:24.610Z,1033.29
2023-02-07T07:29:24.556Z,1033.35
2023-02-07T07:30:24.515Z,1033.35
2023-02-07T07:31:24.485Z,1033.40
2023-02-07T07:33:24.367Z,1033.36
2023-02-07T07:34:24.322Z,1033.39
2023-02-07T07:35:24.271Z,1033.68
2023-02-07T07:36:24.228Z,1033.38
2023-02-07T07:37:24.186Z,1033.40
2023-02-07T07:38:24.138Z,1033.36
2023-02-07T07:39:24.086Z,1033.41
2023-02-07T07:40:24.032Z,1033.77
2023-02-07T07:41:23.982Z,1033.81
2023-02-07T07:42:23.939Z,1033.85
2023-02-07T07:43:23.882Z,1033.84
2023-02-07T07:44:23.840Z,1033.52
2023-02-07T07:45:23.804Z,1033.50
2023-02-07T07:46:23.752Z,1033.52
2023-02-07T07:47:23.692Z,1033.49
2023-02-07T07:48:23.685Z,1033.89
2023-02-07T07:49:23.601Z,1033.57
2023-02-07T07:50:23.558Z,1033.92
2023-02-07T07:51:23.536Z,1033.57
2023-02-07T07:52:23.459Z,1033.60
2023-02-07T07:53:23.433Z,1033.60
2023-02-07T07:54:23.363Z,1033.98
2023-02-07T07:55:23.323Z,1033.61
2023-02-07T07:56:23.272Z,1033.68
2023-02-07T07:57:23.237Z,1033.72
2023-02-07T07:58:23.176Z,1033.70
2023-02-07T07:59:24.293Z,1033.70
2023-02-07T08:00:23.090Z,1033.68
2023-02-07T08:01:23.039Z,1033.73
2023-02-07T08:02:22.996Z,1033.86
2023-02-07T08:03:22.967Z,1033.81
2023-02-07T08:04:22.909Z,1034.16
2023-02-07T08:05:22.869Z,1033.88
2023-02-07T08:06:22.814Z,1033.88
2023-02-07T08:07:22.766Z,1034.31
2023-02-07T08:08:22.750Z,1033.98
2023-02-07T08:09:22.686Z,1034.00
2023-02-07T08:10:22.651Z,1034.34
2023-02-07T08:11:22.591Z,1034.40
2023-02-07T08:12:22.549Z,1034.03
2023-02-07T08:13:22.642Z,1034.06
2023-02-07T08:14:22.464Z,1034.39
2023-02-07T08:15:22.416Z,1034.45
